sensor_id;sensor_type;location;lat;lon;timestamp;pressure;altitude;pressure_sealevel;temperature
24714;BMP280;12820;51.580;5.010;2023-04-25T00:02:18;101093.50;;;11.38
24714;BMP280;12820;51.580;5.010;2023-04-25T00:07:21;101100.25;;;11.37
24714;BMP280;12820;51.580;5.010;2023-04-25T00:12:23;101096.91;;;11.35
24714;BMP280;12820;51.580;5.010;2023-04-25T00:17:25;101099.44;;;11.35
24714;BMP280;12820;51.580;5.010;2023-04-25T00:22:28;101102.00;;;11.30
24714;BMP280;12820;51.580;5.010;2023-04-25T00:27:30;101098.66;;;11.27
24714;BMP280;12820;51.580;5.010;2023-04-25T00:32:32;101100.47;;;11.19
24714;BMP280;12820;51.580;5.010;2023-04-25T00:37:35;101101.41;;;11.09
24714;BMP280;12820;51.580;5.010;2023-04-25T00:42:37;101109.88;;;11.01
24714;BMP280;12820;51.580;5.010;2023-04-25T00:47:40;101114.19;;;10.92
24714;BMP280;12820;51.580;5.010;2023-04-25T00:52:43;101109.25;;;10.86
24714;BMP280;12820;51.580;5.010;2023-04-25T00:57:46;101107.59;;;10.82
24714;BMP280;12820;51.580;5.010;2023-04-25T01:02:49;101105.94;;;10.81
24714;BMP280;12820;51.580;5.010;2023-04-25T01:07:52;101108.47;;;10.80
24714;BMP280;12820;51.580;5.010;2023-04-25T01:12:54;101108.47;;;10.77
24714;BMP280;12820;51.580;5.010;2023-04-25T01:17:57;101111.03;;;10.75
24714;BMP280;12820;51.580;5.010;2023-04-25T01:23:00;101118.59;;;10.74
24714;BMP280;12820;51.580;5.010;2023-04-25T01:28:04;101121.09;;;10.75
24714;BMP280;12820;51.580;5.010;2023-04-25T01:33:08;101114.38;;;10.74
24714;BMP280;12820;51.580;5.010;2023-04-25T01:38:11;101121.94;;;10.74
24714;BMP280;12820;51.580;5.010;2023-04-25T01:43:14;101121.09;;;10.75
24714;BMP280;12820;51.580;5.010;2023-04-25T01:48:16;101125.28;;;10.76
24714;BMP280;12820;51.580;5.010;2023-04-25T01:53:18;101137.03;;;10.73
24714;BMP280;12820;51.580;5.010;2023-04-25T01:58:21;101135.38;;;10.69
24714;BMP280;12820;51.580;5.010;2023-04-25T02:03:42;101148.88;;;10.62
24714;BMP280;12820;51.580;5.010;2023-04-25T02:08:54;101156.47;;;10.55
24714;BMP280;12820;51.580;5.010;2023-04-25T02:13:56;101152.38;;;10.47
24714;BMP280;12820;51.580;5.010;2023-04-25T02:19:11;101154.09;;;10.39
24714;BMP280;12820;51.580;5.010;2023-04-25T02:24:14;101152.50;;;10.32
24714;BMP280;12820;51.580;5.010;2023-04-25T02:29:16;101158.44;;;10.24
24714;BMP280;12820;51.580;5.010;2023-04-25T02:34:18;101154.28;;;10.15
24714;BMP280;12820;51.580;5.010;2023-04-25T02:39:20;101159.34;;;10.11
24714;BMP280;12820;51.580;5.010;2023-04-25T02:44:24;101165.28;;;10.04
24714;BMP280;12820;51.580;5.010;2023-04-25T02:49:26;101174.47;;;10.01
24714;BMP280;12820;51.580;5.010;2023-04-25T02:54:28;101171.16;;;9.97
24714;BMP280;12820;51.580;5.010;2023-04-25T02:59:31;101163.63;;;9.97
24714;BMP280;12820;51.580;5.010;2023-04-25T03:04:33;101155.31;;;9.95
24714;BMP280;12820;51.580;5.010;2023-04-25T03:09:36;101157.81;;;9.94
24714;BMP280;12820;51.580;5.010;2023-04-25T03:14:38;101161.16;;;9.93
24714;BMP280;12820;51.580;5.010;2023-04-25T03:19:40;101169.53;;;9.92
24714;BMP280;12820;51.580;5.010;2023-04-25T03:24:42;101170.38;;;9.93
24714;BMP280;12820;51.580;5.010;2023-04-25T03:29:44;101168.72;;;9.89
24714;BMP280;12820;51.580;5.010;2023-04-25T03:34:47;101158.69;;;9.89
24714;BMP280;12820;51.580;5.010;2023-04-25T03:39:49;101173.75;;;9.89
24714;BMP280;12820;51.580;5.010;2023-04-25T03:44:52;101176.25;;;9.89
24714;BMP280;12820;51.580;5.010;2023-04-25T03:49:55;101175.41;;;9.90
24714;BMP280;12820;51.580;5.010;2023-04-25T03:54:59;101178.75;;;9.90
24714;BMP280;12820;51.580;5.010;2023-04-25T04:00:04;101196.31;;;9.92
24714;BMP280;12820;51.580;5.010;2023-04-25T04:05:14;101196.34;;;9.90
24714;BMP280;12820;51.580;5.010;2023-04-25T04:10:23;101202.16;;;9.92
24714;BMP280;12820;51.580;5.010;2023-04-25T04:15:25;101200.50;;;9.94
24714;BMP280;12820;51.580;5.010;2023-04-25T04:20:29;101208.03;;;9.95
24714;BMP280;12820;51.580;5.010;2023-04-25T04:25:35;101201.28;;;9.97
24714;BMP280;12820;51.580;5.010;2023-04-25T04:30:47;101207.16;;;9.99
24714;BMP280;12820;51.580;5.010;2023-04-25T04:35:50;101202.13;;;9.99
24714;BMP280;12820;51.580;5.010;2023-04-25T04:40:54;101208.00;;;9.98
24714;BMP280;12820;51.580;5.010;2023-04-25T04:46:17;101213.84;;;10.00
24714;BMP280;12820;51.580;5.010;2023-04-25T04:51:46;101220.53;;;10.03
24714;BMP280;12820;51.580;5.010;2023-04-25T04:57:08;101222.19;;;10.05
24714;BMP280;12820;51.580;5.010;2023-04-25T05:02:17;101233.03;;;10.07
24714;BMP280;12820;51.580;5.010;2023-04-25T05:07:31;101241.41;;;10.09
24714;BMP280;12820;51.580;5.010;2023-04-25T05:12:44;101247.25;;;10.14
24714;BMP280;12820;51.580;5.010;2023-04-25T05:18:16;101252.22;;;10.20
24714;BMP280;12820;51.580;5.010;2023-04-25T05:23:34;101262.22;;;10.26
24714;BMP280;12820;51.580;5.010;2023-04-25T05:29:00;101268.06;;;10.32
24714;BMP280;12820;51.580;5.010;2023-04-25T05:34:40;101281.41;;;10.40
24714;BMP280;12820;51.580;5.010;2023-04-25T05:39:52;101287.22;;;10.46
24714;BMP280;12820;51.580;5.010;2023-04-25T05:45:13;101293.03;;;10.55
24714;BMP280;12820;51.580;5.010;2023-04-25T05:50:44;101297.97;;;10.65
24714;BMP280;12820;51.580;5.010;2023-04-25T05:56:08;101293.72;;;10.73
24714;BMP280;12820;51.580;5.010;2023-04-25T06:01:11;101298.66;;;10.85
24714;BMP280;12820;51.580;5.010;2023-04-25T06:06:14;101303.56;;;11.00
24714;BMP280;12820;51.580;5.010;2023-04-25T06:11:16;101304.28;;;11.12
24714;BMP280;12820;51.580;5.010;2023-04-25T06:16:19;101318.47;;;11.23
24714;BMP280;12820;51.580;5.010;2023-04-25T06:21:21;101320.06;;;11.33
24714;BMP280;12820;51.580;5.010;2023-04-25T06:26:25;101326.66;;;11.45
24714;BMP280;12820;51.580;5.010;2023-04-25T06:31:27;101323.09;;;11.64
24714;BMP280;12820;51.580;5.010;2023-04-25T06:36:31;101323.81;;;11.76
24714;BMP280;12820;51.580;5.010;2023-04-25T06:41:39;101332.88;;;11.87
24714;BMP280;12820;51.580;5.010;2023-04-25T06:46:49;101332.81;;;11.93
24714;BMP280;12820;51.580;5.010;2023-04-25T06:51:51;101325.31;;;11.89
24714;BMP280;12820;51.580;5.010;2023-04-25T06:56:54;101349.72;;;11.82
24714;BMP280;12820;51.580;5.010;2023-04-25T07:01:56;101354.00;;;11.77
24714;BMP280;12820;51.580;5.010;2023-04-25T07:07:00;101352.34;;;11.73
24714;BMP280;12820;51.580;5.010;2023-04-25T07:12:26;101368.22;;;11.81
24714;BMP280;12820;51.580;5.010;2023-04-25T07:17:28;101378.00;;;12.06
24714;BMP280;12820;51.580;5.010;2023-04-25T07:22:32;101381.84;;;12.33
24714;BMP280;12820;51.580;5.010;2023-04-25T07:27:34;101384.94;;;12.56
24714;BMP280;12820;51.580;5.010;2023-04-25T07:32:42;101401.59;;;12.68
24714;BMP280;12820;51.580;5.010;2023-04-25T07:37:44;101401.44;;;12.79
24714;BMP280;12820;51.580;5.010;2023-04-25T07:42:50;101412.25;;;12.88
24714;BMP280;12820;51.580;5.010;2023-04-25T07:47:58;101405.22;;;13.06
24714;BMP280;12820;51.580;5.010;2023-04-25T07:53:01;101415.78;;;13.31
24714;BMP280;12820;51.580;5.010;2023-04-25T07:58:11;101422.94;;;13.56
24714;BMP280;12820;51.580;5.010;2023-04-25T08:03:15;101425.88;;;13.80
24714;BMP280;12820;51.580;5.010;2023-04-25T08:08:18;101416.13;;;14.05
24714;BMP280;12820;51.580;5.010;2023-04-25T08:13:21;101420.81;;;14.24
24714;BMP280;12820;51.580;5.010;2023-04-25T08:18:24;101424.78;;;14.37
24714;BMP280;12820;51.580;5.010;2023-04-25T08:23:27;101432.28;;;14.41
24714;BMP280;12820;51.580;5.010;2023-04-25T08:28:46;101435.56;;;14.44
24714;BMP280;12820;51.580;5.010;2023-04-25T08:33:48;101446.00;;;14.68
24714;BMP280;12820;51.580;5.010;2023-04-25T08:39:07;101453.66;;;15.05
24714;BMP280;12820;51.580;5.010;2023-04-25T08:44:25;101457.81;;;15.43
24714;BMP280;12820;51.580;5.010;2023-04-25T08:49:29;101469.00;;;15.67
24714;BMP280;12820;51.580;5.010;2023-04-25T08:54:32;101471.88;;;15.88
24714;BMP280;12820;51.580;5.010;2023-04-25T08:59:40;101473.25;;;16.00
24714;BMP280;12820;51.580;5.010;2023-04-25T09:04:45;101483.94;;;15.79
24714;BMP280;12820;51.580;5.010;2023-04-25T09:09:48;101489.66;;;15.53
24714;BMP280;12820;51.580;5.010;2023-04-25T09:15:07;101502.91;;;15.28
24714;BMP280;12820;51.580;5.010;2023-04-25T09:20:42;101508.38;;;15.12
24714;BMP280;12820;51.580;5.010;2023-04-25T09:26:02;101519.28;;;15.14
24714;BMP280;12820;51.580;5.010;2023-04-25T09:31:04;101517.34;;;15.25
24714;BMP280;12820;51.580;5.010;2023-04-25T09:36:11;101519.22;;;15.52
24714;BMP280;12820;51.580;5.010;2023-04-25T09:41:37;101516.16;;;15.74
24714;BMP280;12820;51.580;5.010;2023-04-25T09:46:41;101512.94;;;16.02
24714;BMP280;12820;51.580;5.010;2023-04-25T09:51:58;101520.78;;;16.24
24714;BMP280;12820;51.580;5.010;2023-04-25T10:02:16;101520.06;;;15.87
24714;BMP280;12820;51.580;5.010;2023-04-25T10:07:22;101540.69;;;15.74
24714;BMP280;12820;51.580;5.010;2023-04-25T10:12:27;101538.91;;;15.76
24714;BMP280;12820;51.580;5.010;2023-04-25T10:17:31;101539.47;;;15.88
24714;BMP280;12820;51.580;5.010;2023-04-25T10:22:42;101561.00;;;16.06
24714;BMP280;12820;51.580;5.010;2023-04-25T10:27:46;101547.81;;;16.56
24714;BMP280;12820;51.580;5.010;2023-04-25T10:32:48;101542.91;;;17.10
24714;BMP280;12820;51.580;5.010;2023-04-25T10:38:11;101536.78;;;19.76
24714;BMP280;12820;51.580;5.010;2023-04-25T10:48:34;101532.88;;;19.68
24714;BMP280;12820;51.580;5.010;2023-04-25T10:53:37;101552.19;;;19.09
24714;BMP280;12820;51.580;5.010;2023-04-25T10:58:43;101553.34;;;19.23
24714;BMP280;12820;51.580;5.010;2023-04-25T11:03:45;101537.91;;;20.86
24714;BMP280;12820;51.580;5.010;2023-04-25T11:08:51;101553.63;;;21.33
24714;BMP280;12820;51.580;5.010;2023-04-25T11:13:53;101567.44;;;20.15
24714;BMP280;12820;51.580;5.010;2023-04-25T11:18:57;101576.00;;;19.30
24714;BMP280;12820;51.580;5.010;2023-04-25T11:24:00;101576.22;;;18.56
24714;BMP280;12820;51.580;5.010;2023-04-25T11:29:02;101574.97;;;17.94
24714;BMP280;12820;51.580;5.010;2023-04-25T11:34:05;101576.50;;;17.46
24714;BMP280;12820;51.580;5.010;2023-04-25T11:39:07;101576.47;;;17.19
24714;BMP280;12820;51.580;5.010;2023-04-25T11:44:09;101566.03;;;17.81
24714;BMP280;12820;51.580;5.010;2023-04-25T11:49:12;101556.59;;;23.52
24714;BMP280;12820;51.580;5.010;2023-04-25T11:54:14;101542.34;;;27.27
24714;BMP280;12820;51.580;5.010;2023-04-25T11:59:23;101548.75;;;26.63
24714;BMP280;12820;51.580;5.010;2023-04-25T12:04:25;101577.56;;;23.89
24714;BMP280;12820;51.580;5.010;2023-04-25T12:09:32;101588.84;;;21.97
24714;BMP280;12820;51.580;5.010;2023-04-25T12:14:35;101603.53;;;20.66
24714;BMP280;12820;51.580;5.010;2023-04-25T12:19:38;101602.66;;;19.65
24714;BMP280;12820;51.580;5.010;2023-04-25T12:24:44;101615.06;;;19.08
24714;BMP280;12820;51.580;5.010;2023-04-25T12:29:56;101603.66;;;19.18
24714;BMP280;12820;51.580;5.010;2023-04-25T12:34:58;101602.16;;;19.58
24714;BMP280;12820;51.580;5.010;2023-04-25T12:40:00;101603.44;;;20.28
24714;BMP280;12820;51.580;5.010;2023-04-25T12:45:03;101583.34;;;21.70
24714;BMP280;12820;51.580;5.010;2023-04-25T12:50:05;101595.13;;;22.41
24714;BMP280;12820;51.580;5.010;2023-04-25T12:55:08;101607.59;;;21.97
24714;BMP280;12820;51.580;5.010;2023-04-25T13:00:10;101607.66;;;21.25
24714;BMP280;12820;51.580;5.010;2023-04-25T13:05:16;101609.53;;;20.65
24714;BMP280;12820;51.580;5.010;2023-04-25T13:10:18;101613.84;;;20.24
24714;BMP280;12820;51.580;5.010;2023-04-25T13:15:20;101611.81;;;19.92
24714;BMP280;12820;51.580;5.010;2023-04-25T13:20:23;101605.09;;;19.89
24714;BMP280;12820;51.580;5.010;2023-04-25T13:25:25;101595.94;;;22.08
24714;BMP280;12820;51.580;5.010;2023-04-25T13:30:28;101597.53;;;22.11
24714;BMP280;12820;51.580;5.010;2023-04-25T13:35:30;101600.91;;;21.42
24714;BMP280;12820;51.580;5.010;2023-04-25T13:40:32;101577.91;;;24.69
24714;BMP280;12820;51.580;5.010;2023-04-25T13:45:34;101575.91;;;27.75
24714;BMP280;12820;51.580;5.010;2023-04-25T13:50:37;101568.50;;;30.16
24714;BMP280;12820;51.580;5.010;2023-04-25T13:55:39;101575.84;;;29.70
24714;BMP280;12820;51.580;5.010;2023-04-25T14:00:41;101581.97;;;27.51
24714;BMP280;12820;51.580;5.010;2023-04-25T14:05:45;101584.13;;;25.99
24714;BMP280;12820;51.580;5.010;2023-04-25T14:10:47;101589.56;;;25.68
24714;BMP280;12820;51.580;5.010;2023-04-25T14:15:49;101593.78;;;25.69
24714;BMP280;12820;51.580;5.010;2023-04-25T14:20:52;101584.91;;;29.24
24714;BMP280;12820;51.580;5.010;2023-04-25T14:25:54;101580.25;;;30.80
24714;BMP280;12820;51.580;5.010;2023-04-25T14:30:56;101576.25;;;31.35
24714;BMP280;12820;51.580;5.010;2023-04-25T14:35:58;101566.03;;;32.16
24714;BMP280;12820;51.580;5.010;2023-04-25T14:41:01;101571.66;;;32.49
24714;BMP280;12820;51.580;5.010;2023-04-25T14:46:03;101589.72;;;30.61
24714;BMP280;12820;51.580;5.010;2023-04-25T14:51:05;101600.34;;;28.38
24714;BMP280;12820;51.580;5.010;2023-04-25T14:56:07;101604.56;;;26.64
24714;BMP280;12820;51.580;5.010;2023-04-25T15:01:11;101605.19;;;25.26
24714;BMP280;12820;51.580;5.010;2023-04-25T15:06:13;101611.91;;;24.45
24714;BMP280;12820;51.580;5.010;2023-04-25T15:11:16;101604.53;;;25.36
24714;BMP280;12820;51.580;5.010;2023-04-25T15:16:18;101603.41;;;26.43
24714;BMP280;12820;51.580;5.010;2023-04-25T15:21:20;101610.47;;;26.78
24714;BMP280;12820;51.580;5.010;2023-04-25T15:26:23;101626.44;;;26.46
24714;BMP280;12820;51.580;5.010;2023-04-25T15:31:25;101628.31;;;25.93
24714;BMP280;12820;51.580;5.010;2023-04-25T15:36:27;101636.91;;;24.99
24714;BMP280;12820;51.580;5.010;2023-04-25T15:41:30;101640.78;;;24.06
24714;BMP280;12820;51.580;5.010;2023-04-25T15:46:32;101645.72;;;23.34
24714;BMP280;12820;51.580;5.010;2023-04-25T15:51:34;101648.28;;;22.54
24714;BMP280;12820;51.580;5.010;2023-04-25T15:56:36;101646.28;;;21.73
24714;BMP280;12820;51.580;5.010;2023-04-25T16:01:38;101654.66;;;21.23
24714;BMP280;12820;51.580;5.010;2023-04-25T16:06:41;101645.41;;;21.56
24714;BMP280;12820;51.580;5.010;2023-04-25T16:11:43;101649.00;;;22.23
24714;BMP280;12820;51.580;5.010;2023-04-25T16:16:45;101659.25;;;22.40
24714;BMP280;12820;51.580;5.010;2023-04-25T16:21:47;101663.59;;;22.21
24714;BMP280;12820;51.580;5.010;2023-04-25T16:26:50;101663.75;;;21.66
24714;BMP280;12820;51.580;5.010;2023-04-25T16:31:52;101669.59;;;21.14
24714;BMP280;12820;51.580;5.010;2023-04-25T16:36:55;101670.84;;;21.04
24714;BMP280;12820;51.580;5.010;2023-04-25T16:41:57;101687.97;;;21.39
24714;BMP280;12820;51.580;5.010;2023-04-25T16:46:59;101669.53;;;22.05
24714;BMP280;12820;51.580;5.010;2023-04-25T16:52:02;101674.16;;;22.32
24714;BMP280;12820;51.580;5.010;2023-04-25T16:57:04;101664.00;;;22.47
24714;BMP280;12820;51.580;5.010;2023-04-25T17:02:10;101674.19;;;22.81
24714;BMP280;12820;51.580;5.010;2023-04-25T17:07:13;101673.31;;;22.66
24714;BMP280;12820;51.580;5.010;2023-04-25T17:12:17;101679.22;;;22.50
24714;BMP280;12820;51.580;5.010;2023-04-25T17:17:20;101681.78;;;22.50
24714;BMP280;12820;51.580;5.010;2023-04-25T17:22:23;101688.13;;;22.43
24714;BMP280;12820;51.580;5.010;2023-04-25T17:27:25;101691.94;;;22.18
24714;BMP280;12820;51.580;5.010;2023-04-25T17:32:27;101689.28;;;21.85
24714;BMP280;12820;51.580;5.010;2023-04-25T17:37:29;101700.44;;;21.47
24714;BMP280;12820;51.580;5.010;2023-04-25T17:42:32;101699.56;;;20.91
24714;BMP280;12820;51.580;5.010;2023-04-25T17:47:34;101709.72;;;20.32
24714;BMP280;12820;51.580;5.010;2023-04-25T17:52:36;101720.41;;;19.77
24714;BMP280;12820;51.580;5.010;2023-04-25T17:57:39;101724.06;;;19.24
24714;BMP280;12820;51.580;5.010;2023-04-25T18:02:42;101729.25;;;18.74
24714;BMP280;12820;51.580;5.010;2023-04-25T18:07:46;101727.50;;;18.24
24714;BMP280;12820;51.580;5.010;2023-04-25T18:12:48;101739.84;;;17.82
24714;BMP280;12820;51.580;5.010;2023-04-25T18:17:51;101738.53;;;17.40
24714;BMP280;12820;51.580;5.010;2023-04-25T18:22:53;101744.81;;;16.96
24714;BMP280;12820;51.580;5.010;2023-04-25T18:27:55;101749.91;;;16.60
24714;BMP280;12820;51.580;5.010;2023-04-25T18:32:58;101749.94;;;16.25
24714;BMP280;12820;51.580;5.010;2023-04-25T18:38:00;101760.78;;;15.93
24714;BMP280;12820;51.580;5.010;2023-04-25T18:43:02;101774.13;;;15.61
24714;BMP280;12820;51.580;5.010;2023-04-25T18:48:04;101763.75;;;15.31
24714;BMP280;12820;51.580;5.010;2023-04-25T18:53:07;101771.00;;;15.04
24714;BMP280;12820;51.580;5.010;2023-04-25T18:58:09;101768.88;;;14.79
24714;BMP280;12820;51.580;5.010;2023-04-25T19:03:11;101771.81;;;14.55
24714;BMP280;12820;51.580;5.010;2023-04-25T19:08:13;101780.63;;;14.32
24714;BMP280;12820;51.580;5.010;2023-04-25T19:13:19;101799.44;;;14.10
24714;BMP280;12820;51.580;5.010;2023-04-25T19:18:21;101801.44;;;13.88
24714;BMP280;12820;51.580;5.010;2023-04-25T19:23:23;101805.84;;;13.68
24714;BMP280;12820;51.580;5.010;2023-04-25T19:28:27;101807.75;;;13.50
24714;BMP280;12820;51.580;5.010;2023-04-25T19:33:30;101807.91;;;13.34
24714;BMP280;12820;51.580;5.010;2023-04-25T19:38:32;101813.94;;;13.19
24714;BMP280;12820;51.580;5.010;2023-04-25T19:43:34;101820.84;;;13.04
24714;BMP280;12820;51.580;5.010;2023-04-25T19:48:36;101827.66;;;12.90
24714;BMP280;12820;51.580;5.010;2023-04-25T19:53:38;101839.56;;;12.77
24714;BMP280;12820;51.580;5.010;2023-04-25T19:58:40;101843.00;;;12.64
24714;BMP280;12820;51.580;5.010;2023-04-25T20:03:43;101851.47;;;12.51
24714;BMP280;12820;51.580;5.010;2023-04-25T20:08:46;101849.00;;;12.38
24714;BMP280;12820;51.580;5.010;2023-04-25T20:13:48;101848.25;;;12.27
24714;BMP280;12820;51.580;5.010;2023-04-25T20:18:51;101848.31;;;12.17
24714;BMP280;12820;51.580;5.010;2023-04-25T20:23:54;101858.44;;;12.08
24714;BMP280;12820;51.580;5.010;2023-04-25T20:28:57;101851.72;;;12.02
24714;BMP280;12820;51.580;5.010;2023-04-25T20:33:59;101855.94;;;11.95
24714;BMP280;12820;51.580;5.010;2023-04-25T20:39:02;101845.06;;;11.86
24714;BMP280;12820;51.580;5.010;2023-04-25T20:44:06;101847.63;;;11.79
24714;BMP280;12820;51.580;5.010;2023-04-25T20:49:12;101849.34;;;11.71
24714;BMP280;12820;51.580;5.010;2023-04-25T20:54:14;101853.56;;;11.62
24714;BMP280;12820;51.580;5.010;2023-04-25T20:59:16;101844.31;;;11.54
24714;BMP280;12820;51.580;5.010;2023-04-25T21:04:19;101850.22;;;11.44
24714;BMP280;12820;51.580;5.010;2023-04-25T21:09:21;101848.56;;;11.36
24714;BMP280;12820;51.580;5.010;2023-04-25T21:14:24;101840.97;;;11.25
24714;BMP280;12820;51.580;5.010;2023-04-25T21:19:26;101842.66;;;11.16
24714;BMP280;12820;51.580;5.010;2023-04-25T21:24:28;101863.63;;;11.06
24714;BMP280;12820;51.580;5.010;2023-04-25T21:29:33;101864.50;;;10.98
24714;BMP280;12820;51.580;5.010;2023-04-25T21:34:35;101866.16;;;10.89
24714;BMP280;12820;51.580;5.010;2023-04-25T21:39:37;101868.66;;;10.80
24714;BMP280;12820;51.580;5.010;2023-04-25T21:44:39;101877.88;;;10.71
24714;BMP280;12820;51.580;5.010;2023-04-25T21:49:41;101874.50;;;10.62
24714;BMP280;12820;51.580;5.010;2023-04-25T21:54:44;101880.34;;;10.52
24714;BMP280;12820;51.580;5.010;2023-04-25T21:59:47;101878.66;;;10.42
24714;BMP280;12820;51.580;5.010;2023-04-25T22:04:49;101877.78;;;10.31
24714;BMP280;12820;51.580;5.010;2023-04-25T22:09:51;101889.47;;;10.19
24714;BMP280;12820;51.580;5.010;2023-04-25T22:14:56;101894.44;;;10.08
24714;BMP280;12820;51.580;5.010;2023-04-25T22:19:59;101893.53;;;9.98
24714;BMP280;12820;51.580;5.010;2023-04-25T22:25:03;101885.13;;;9.88
24714;BMP280;12820;51.580;5.010;2023-04-25T22:30:09;101893.44;;;9.78
24714;BMP280;12820;51.580;5.010;2023-04-25T22:35:13;101892.53;;;9.67
24714;BMP280;12820;51.580;5.010;2023-04-25T22:40:15;101893.28;;;9.58
24714;BMP280;12820;51.580;5.010;2023-04-25T22:45:17;101899.06;;;9.48
24714;BMP280;12820;51.580;5.010;2023-04-25T22:50:19;101903.19;;;9.39
24714;BMP280;12820;51.580;5.010;2023-04-25T22:55:22;101904.78;;;9.29
24714;BMP280;12820;51.580;5.010;2023-04-25T23:00:24;101908.88;;;9.22
24714;BMP280;12820;51.580;5.010;2023-04-25T23:05:29;101908.00;;;9.14
24714;BMP280;12820;51.580;5.010;2023-04-25T23:10:32;101915.44;;;9.05
24714;BMP280;12820;51.580;5.010;2023-04-25T23:15:34;101906.19;;;8.98
24714;BMP280;12820;51.580;5.010;2023-04-25T23:20:36;101909.47;;;8.91
24714;BMP280;12820;51.580;5.010;2023-04-25T23:25:38;101911.06;;;8.84
24714;BMP280;12820;51.580;5.010;2023-04-25T23:30:41;101914.34;;;8.77
24714;BMP280;12820;51.580;5.010;2023-04-25T23:35:43;101906.72;;;8.69
24714;BMP280;12820;51.580;5.010;2023-04-25T23:40:45;101909.19;;;8.65
24714;BMP280;12820;51.580;5.010;2023-04-25T23:45:48;101899.91;;;8.55
24714;BMP280;12820;51.580;5.010;2023-04-25T23:50:50;101894.78;;;8.47
24714;BMP280;12820;51.580;5.010;2023-04-25T23:55:53;101900.53;;;8.37
